Saxtons River, Vermont
Current Conditions -  °F | °C
As of 3:54 PM on Saturday 22 Nov 2014 (Local Time) from KVSF Reporting Station
Overcast Overcast  
Wind Chill: 29°   Ceiling: 4300
Heat Index: 34°   Visibility: 10mi
Dew Point: 12°   Wind: 6mph
Humidity: 40%   Direction: 140°SE
Pressure: 30.07"   Gusts: NA
Location:  43.14°N, 72.51°W
Report Text: KVSF 222054Z AUTO 14005KT 10SM OVC043 01/M11 A3007 RMK AO2 SLP193 T00111111 56021
Loading
Personal Weather Stations






























Interactive Weather Map New forecast layout! Learn more

10-Day Weather Forecast

Advertisements
Track Severe Weather on mobile